sensor_id;sensor_type;location;lat;lon;timestamp;P1;durP1;ratioP1;P2;durP2;ratioP2
61471;SDS011;47337;54.068;12.114;2024-01-30T00:00:54;6.30;;;4.63;;
61471;SDS011;47337;54.068;12.114;2024-01-30T00:03:19;8.68;;;4.80;;
61471;SDS011;47337;54.068;12.114;2024-01-30T00:05:47;8.00;;;4.70;;
61471;SDS011;47337;54.068;12.114;2024-01-30T00:08:12;7.72;;;4.63;;
61471;SDS011;47337;54.068;12.114;2024-01-30T00:10:37;8.32;;;4.70;;
61471;SDS011;47337;54.068;12.114;2024-01-30T00:13:03;7.47;;;4.63;;
61471;SDS011;47337;54.068;12.114;2024-01-30T00:15:28;9.88;;;4.38;;
61471;SDS011;47337;54.068;12.114;2024-01-30T00:17:53;7.47;;;4.20;;
61471;SDS011;47337;54.068;12.114;2024-01-30T00:20:18;11.02;;;5.05;;
61471;SDS011;47337;54.068;12.114;2024-01-30T00:22:46;8.75;;;5.05;;
61471;SDS011;47337;54.068;12.114;2024-01-30T00:25:11;7.63;;;4.82;;
61471;SDS011;47337;54.068;12.114;2024-01-30T00:27:39;8.98;;;4.80;;
61471;SDS011;47337;54.068;12.114;2024-01-30T00:30:04;7.75;;;4.28;;
61471;SDS011;47337;54.068;12.114;2024-01-30T00:32:30;9.45;;;4.55;;
61471;SDS011;47337;54.068;12.114;2024-01-30T00:34:57;8.15;;;4.68;;
61471;SDS011;47337;54.068;12.114;2024-01-30T00:37:23;6.60;;;4.40;;
61471;SDS011;47337;54.068;12.114;2024-01-30T00:39:48;6.72;;;4.35;;
61471;SDS011;47337;54.068;12.114;2024-01-30T00:42:16;9.85;;;4.68;;
61471;SDS011;47337;54.068;12.114;2024-01-30T00:44:41;8.20;;;4.43;;
61471;SDS011;47337;54.068;12.114;2024-01-30T00:47:07;6.85;;;4.55;;
61471;SDS011;47337;54.068;12.114;2024-01-30T00:49:32;11.07;;;4.88;;
61471;SDS011;47337;54.068;12.114;2024-01-30T00:51:57;10.15;;;4.78;;
61471;SDS011;47337;54.068;12.114;2024-01-30T00:54:22;8.27;;;4.43;;
61471;SDS011;47337;54.068;12.114;2024-01-30T00:56:48;7.25;;;4.22;;
61471;SDS011;47337;54.068;12.114;2024-01-30T00:59:13;10.93;;;4.70;;
61471;SDS011;47337;54.068;12.114;2024-01-30T01:01:41;8.52;;;4.68;;
61471;SDS011;47337;54.068;12.114;2024-01-30T01:04:06;8.25;;;5.03;;
61471;SDS011;47337;54.068;12.114;2024-01-30T01:06:32;9.55;;;5.18;;
61471;SDS011;47337;54.068;12.114;2024-01-30T01:08:57;7.78;;;4.70;;
61471;SDS011;47337;54.068;12.114;2024-01-30T01:11:22;9.45;;;5.45;;
61471;SDS011;47337;54.068;12.114;2024-01-30T01:13:48;8.18;;;4.57;;
61471;SDS011;47337;54.068;12.114;2024-01-30T01:16:13;8.38;;;5.22;;
61471;SDS011;47337;54.068;12.114;2024-01-30T01:18:38;9.00;;;5.40;;
61471;SDS011;47337;54.068;12.114;2024-01-30T01:21:03;8.95;;;4.78;;
61471;SDS011;47337;54.068;12.114;2024-01-30T01:23:29;9.75;;;4.90;;
61471;SDS011;47337;54.068;12.114;2024-01-30T01:25:57;8.02;;;5.28;;
61471;SDS011;47337;54.068;12.114;2024-01-30T01:28:24;9.13;;;4.90;;
61471;SDS011;47337;54.068;12.114;2024-01-30T01:30:49;7.45;;;4.80;;
61471;SDS011;47337;54.068;12.114;2024-01-30T01:33:17;7.68;;;4.78;;
61471;SDS011;47337;54.068;12.114;2024-01-30T01:35:42;9.50;;;4.75;;
61471;SDS011;47337;54.068;12.114;2024-01-30T01:38:08;7.65;;;4.80;;
61471;SDS011;47337;54.068;12.114;2024-01-30T01:40:33;11.20;;;5.30;;
61471;SDS011;47337;54.068;12.114;2024-01-30T01:42:58;10.75;;;4.90;;
61471;SDS011;47337;54.068;12.114;2024-01-30T01:45:23;8.20;;;4.93;;
61471;SDS011;47337;54.068;12.114;2024-01-30T01:47:51;8.52;;;5.78;;
61471;SDS011;47337;54.068;12.114;2024-01-30T01:50:20;9.50;;;5.15;;
61471;SDS011;47337;54.068;12.114;2024-01-30T01:52:47;8.43;;;5.28;;
61471;SDS011;47337;54.068;12.114;2024-01-30T01:55:13;8.23;;;5.00;;
61471;SDS011;47337;54.068;12.114;2024-01-30T01:57:39;11.40;;;5.70;;
61471;SDS011;47337;54.068;12.114;2024-01-30T02:00:08;10.60;;;5.45;;
61471;SDS011;47337;54.068;12.114;2024-01-30T02:02:35;9.48;;;5.72;;
61471;SDS011;47337;54.068;12.114;2024-01-30T02:05:03;10.35;;;5.88;;
61471;SDS011;47337;54.068;12.114;2024-01-30T02:07:29;9.55;;;5.50;;
61471;SDS011;47337;54.068;12.114;2024-01-30T02:09:54;12.15;;;6.25;;
61471;SDS011;47337;54.068;12.114;2024-01-30T02:12:20;11.23;;;5.97;;
61471;SDS011;47337;54.068;12.114;2024-01-30T02:14:45;11.48;;;6.63;;
61471;SDS011;47337;54.068;12.114;2024-01-30T02:17:11;10.80;;;6.30;;
61471;SDS011;47337;54.068;12.114;2024-01-30T02:19:36;10.10;;;6.28;;
61471;SDS011;47337;54.068;12.114;2024-01-30T02:22:04;10.35;;;5.85;;
61471;SDS011;47337;54.068;12.114;2024-01-30T02:24:30;9.75;;;6.03;;
61471;SDS011;47337;54.068;12.114;2024-01-30T02:26:55;10.23;;;6.45;;
61471;SDS011;47337;54.068;12.114;2024-01-30T02:29:20;12.48;;;6.28;;
61471;SDS011;47337;54.068;12.114;2024-01-30T02:31:46;14.80;;;6.80;;
61471;SDS011;47337;54.068;12.114;2024-01-30T02:34:11;9.43;;;6.07;;
61471;SDS011;47337;54.068;12.114;2024-01-30T02:36:36;11.27;;;6.07;;
61471;SDS011;47337;54.068;12.114;2024-01-30T02:39:02;10.52;;;6.22;;
61471;SDS011;47337;54.068;12.114;2024-01-30T02:41:30;10.43;;;6.00;;
61471;SDS011;47337;54.068;12.114;2024-01-30T02:43:55;13.82;;;6.45;;
61471;SDS011;47337;54.068;12.114;2024-01-30T02:46:22;9.82;;;5.47;;
61471;SDS011;47337;54.068;12.114;2024-01-30T02:48:48;11.52;;;5.95;;
61471;SDS011;47337;54.068;12.114;2024-01-30T02:51:13;10.90;;;5.93;;
61471;SDS011;47337;54.068;12.114;2024-01-30T02:53:38;10.35;;;5.65;;
61471;SDS011;47337;54.068;12.114;2024-01-30T02:56:03;14.98;;;6.95;;
61471;SDS011;47337;54.068;12.114;2024-01-30T02:58:30;10.43;;;6.30;;
61471;SDS011;47337;54.068;12.114;2024-01-30T03:00:56;10.32;;;5.80;;
61471;SDS011;47337;54.068;12.114;2024-01-30T03:03:23;11.40;;;6.43;;
61471;SDS011;47337;54.068;12.114;2024-01-30T03:05:48;10.88;;;6.05;;
61471;SDS011;47337;54.068;12.114;2024-01-30T03:08:14;9.85;;;6.03;;
61471;SDS011;47337;54.068;12.114;2024-01-30T03:10:39;9.63;;;5.85;;
61471;SDS011;47337;54.068;12.114;2024-01-30T03:13:04;10.68;;;5.57;;
61471;SDS011;47337;54.068;12.114;2024-01-30T03:15:32;9.18;;;5.38;;
61471;SDS011;47337;54.068;12.114;2024-01-30T03:17:57;8.65;;;5.97;;
61471;SDS011;47337;54.068;12.114;2024-01-30T03:20:22;10.43;;;5.50;;
61471;SDS011;47337;54.068;12.114;2024-01-30T03:22:48;8.80;;;6.18;;
61471;SDS011;47337;54.068;12.114;2024-01-30T03:25:13;9.15;;;5.30;;
61471;SDS011;47337;54.068;12.114;2024-01-30T03:27:38;11.38;;;6.47;;
61471;SDS011;47337;54.068;12.114;2024-01-30T03:30:03;8.65;;;5.32;;
61471;SDS011;47337;54.068;12.114;2024-01-30T03:32:29;7.93;;;5.20;;
61471;SDS011;47337;54.068;12.114;2024-01-30T03:34:56;8.32;;;5.68;;
61471;SDS011;47337;54.068;12.114;2024-01-30T03:37:23;12.63;;;5.85;;
61471;SDS011;47337;54.068;12.114;2024-01-30T03:39:48;8.88;;;4.55;;
61471;SDS011;47337;54.068;12.114;2024-01-30T03:42:13;11.68;;;5.05;;
61471;SDS011;47337;54.068;12.114;2024-01-30T03:44:41;9.20;;;5.72;;
61471;SDS011;47337;54.068;12.114;2024-01-30T03:47:06;11.23;;;5.28;;
61471;SDS011;47337;54.068;12.114;2024-01-30T03:49:31;9.80;;;5.30;;
61471;SDS011;47337;54.068;12.114;2024-01-30T03:51:59;7.97;;;5.38;;
61471;SDS011;47337;54.068;12.114;2024-01-30T03:54:24;10.43;;;6.03;;
61471;SDS011;47337;54.068;12.114;2024-01-30T03:56:49;7.70;;;4.90;;
61471;SDS011;47337;54.068;12.114;2024-01-30T03:59:14;10.15;;;5.40;;
61471;SDS011;47337;54.068;12.114;2024-01-30T04:01:40;9.45;;;5.78;;
61471;SDS011;47337;54.068;12.114;2024-01-30T04:04:05;8.73;;;5.32;;
61471;SDS011;47337;54.068;12.114;2024-01-30T04:06:31;10.73;;;5.72;;
61471;SDS011;47337;54.068;12.114;2024-01-30T04:08:56;12.40;;;5.80;;
61471;SDS011;47337;54.068;12.114;2024-01-30T04:11:21;8.50;;;5.68;;
61471;SDS011;47337;54.068;12.114;2024-01-30T04:13:47;7.40;;;4.90;;
61471;SDS011;47337;54.068;12.114;2024-01-30T04:16:22;10.90;;;5.30;;
61471;SDS011;47337;54.068;12.114;2024-01-30T04:18:48;8.55;;;5.45;;
61471;SDS011;47337;54.068;12.114;2024-01-30T04:21:15;11.02;;;5.35;;
61471;SDS011;47337;54.068;12.114;2024-01-30T04:23:41;8.02;;;5.35;;
61471;SDS011;47337;54.068;12.114;2024-01-30T04:26:06;10.00;;;5.13;;
61471;SDS011;47337;54.068;12.114;2024-01-30T04:28:31;9.75;;;6.35;;
61471;SDS011;47337;54.068;12.114;2024-01-30T04:30:57;8.63;;;5.57;;
61471;SDS011;47337;54.068;12.114;2024-01-30T04:33:22;9.10;;;5.32;;
61471;SDS011;47337;54.068;12.114;2024-01-30T04:35:47;10.60;;;5.50;;
61471;SDS011;47337;54.068;12.114;2024-01-30T04:38:13;9.88;;;5.03;;
61471;SDS011;47337;54.068;12.114;2024-01-30T04:40:39;9.02;;;5.93;;
61471;SDS011;47337;54.068;12.114;2024-01-30T04:43:04;11.45;;;5.65;;
61471;SDS011;47337;54.068;12.114;2024-01-30T04:45:30;8.85;;;5.28;;
61471;SDS011;47337;54.068;12.114;2024-01-30T04:47:55;9.27;;;5.13;;
61471;SDS011;47337;54.068;12.114;2024-01-30T04:50:20;9.75;;;5.85;;
61471;SDS011;47337;54.068;12.114;2024-01-30T04:52:45;9.85;;;5.80;;
61471;SDS011;47337;54.068;12.114;2024-01-30T04:55:11;8.38;;;5.25;;
61471;SDS011;47337;54.068;12.114;2024-01-30T04:57:38;10.80;;;5.57;;
61471;SDS011;47337;54.068;12.114;2024-01-30T05:00:03;9.15;;;5.93;;
61471;SDS011;47337;54.068;12.114;2024-01-30T05:02:30;9.95;;;5.45;;
61471;SDS011;47337;54.068;12.114;2024-01-30T05:04:57;11.02;;;5.97;;
61471;SDS011;47337;54.068;12.114;2024-01-30T05:07:24;11.60;;;5.97;;
61471;SDS011;47337;54.068;12.114;2024-01-30T05:09:52;8.60;;;5.70;;
61471;SDS011;47337;54.068;12.114;2024-01-30T05:12:18;9.25;;;5.85;;
61471;SDS011;47337;54.068;12.114;2024-01-30T05:14:43;9.68;;;6.90;;
61471;SDS011;47337;54.068;12.114;2024-01-30T05:17:10;9.82;;;5.70;;
61471;SDS011;47337;54.068;12.114;2024-01-30T05:19:37;11.40;;;5.75;;
61471;SDS011;47337;54.068;12.114;2024-01-30T05:22:03;12.52;;;5.82;;
61471;SDS011;47337;54.068;12.114;2024-01-30T05:24:28;11.35;;;6.40;;
61471;SDS011;47337;54.068;12.114;2024-01-30T05:26:55;10.82;;;5.47;;
61471;SDS011;47337;54.068;12.114;2024-01-30T05:29:21;9.02;;;6.00;;
61471;SDS011;47337;54.068;12.114;2024-01-30T05:31:46;12.05;;;6.15;;
61471;SDS011;47337;54.068;12.114;2024-01-30T05:34:11;10.20;;;6.97;;
61471;SDS011;47337;54.068;12.114;2024-01-30T05:36:39;8.38;;;5.80;;
61471;SDS011;47337;54.068;12.114;2024-01-30T05:39:04;12.93;;;7.20;;
61471;SDS011;47337;54.068;12.114;2024-01-30T05:41:30;7.50;;;5.70;;
61471;SDS011;47337;54.068;12.114;2024-01-30T05:43:55;12.10;;;6.50;;
61471;SDS011;47337;54.068;12.114;2024-01-30T05:46:20;12.20;;;6.43;;
61471;SDS011;47337;54.068;12.114;2024-01-30T05:48:45;11.18;;;6.85;;
61471;SDS011;47337;54.068;12.114;2024-01-30T05:51:10;10.57;;;7.03;;
61471;SDS011;47337;54.068;12.114;2024-01-30T05:53:36;10.93;;;7.72;;
61471;SDS011;47337;54.068;12.114;2024-01-30T05:56:01;10.20;;;6.57;;
61471;SDS011;47337;54.068;12.114;2024-01-30T05:58:27;12.27;;;7.18;;
61471;SDS011;47337;54.068;12.114;2024-01-30T06:00:52;12.60;;;6.32;;
61471;SDS011;47337;54.068;12.114;2024-01-30T06:03:17;12.50;;;6.22;;
61471;SDS011;47337;54.068;12.114;2024-01-30T06:05:43;12.02;;;7.53;;
61471;SDS011;47337;54.068;12.114;2024-01-30T06:08:08;14.60;;;7.90;;
61471;SDS011;47337;54.068;12.114;2024-01-30T06:10:33;12.10;;;7.82;;
61471;SDS011;47337;54.068;12.114;2024-01-30T06:13:01;11.48;;;7.47;;
61471;SDS011;47337;54.068;12.114;2024-01-30T06:15:26;11.57;;;7.13;;
61471;SDS011;47337;54.068;12.114;2024-01-30T06:17:51;12.65;;;7.63;;
61471;SDS011;47337;54.068;12.114;2024-01-30T06:20:17;11.23;;;6.63;;
61471;SDS011;47337;54.068;12.114;2024-01-30T06:22:42;11.13;;;7.10;;
61471;SDS011;47337;54.068;12.114;2024-01-30T06:25:08;12.18;;;6.88;;
61471;SDS011;47337;54.068;12.114;2024-01-30T06:27:39;12.05;;;7.45;;
61471;SDS011;47337;54.068;12.114;2024-01-30T06:30:07;11.40;;;7.20;;
61471;SDS011;47337;54.068;12.114;2024-01-30T06:32:32;12.98;;;7.25;;
61471;SDS011;47337;54.068;12.114;2024-01-30T06:35:00;10.85;;;7.05;;
61471;SDS011;47337;54.068;12.114;2024-01-30T06:37:30;12.35;;;6.68;;
61471;SDS011;47337;54.068;12.114;2024-01-30T06:39:55;12.18;;;7.97;;
61471;SDS011;47337;54.068;12.114;2024-01-30T06:42:21;11.05;;;6.72;;
61471;SDS011;47337;54.068;12.114;2024-01-30T06:44:46;13.25;;;7.65;;
61471;SDS011;47337;54.068;12.114;2024-01-30T06:47:11;15.57;;;7.05;;
61471;SDS011;47337;54.068;12.114;2024-01-30T06:49:39;15.32;;;8.07;;
61471;SDS011;47337;54.068;12.114;2024-01-30T06:52:07;10.60;;;7.15;;
61471;SDS011;47337;54.068;12.114;2024-01-30T06:54:32;15.80;;;7.90;;
61471;SDS011;47337;54.068;12.114;2024-01-30T06:56:58;12.80;;;7.18;;
61471;SDS011;47337;54.068;12.114;2024-01-30T06:59:23;12.88;;;7.60;;
61471;SDS011;47337;54.068;12.114;2024-01-30T07:01:49;13.05;;;7.75;;
61471;SDS011;47337;54.068;12.114;2024-01-30T07:04:14;19.58;;;8.48;;
61471;SDS011;47337;54.068;12.114;2024-01-30T07:06:39;11.15;;;7.05;;
61471;SDS011;47337;54.068;12.114;2024-01-30T07:09:04;12.65;;;7.65;;
61471;SDS011;47337;54.068;12.114;2024-01-30T07:11:30;11.00;;;7.55;;
61471;SDS011;47337;54.068;12.114;2024-01-30T07:13:55;13.05;;;7.32;;
61471;SDS011;47337;54.068;12.114;2024-01-30T07:16:21;10.48;;;7.05;;
61471;SDS011;47337;54.068;12.114;2024-01-30T07:18:47;14.77;;;8.40;;
61471;SDS011;47337;54.068;12.114;2024-01-30T07:21:12;13.73;;;7.53;;
61471;SDS011;47337;54.068;12.114;2024-01-30T07:23:40;14.95;;;8.05;;
61471;SDS011;47337;54.068;12.114;2024-01-30T07:26:06;18.92;;;8.38;;
61471;SDS011;47337;54.068;12.114;2024-01-30T07:28:34;16.38;;;8.93;;
61471;SDS011;47337;54.068;12.114;2024-01-30T07:31:03;13.60;;;8.45;;
61471;SDS011;47337;54.068;12.114;2024-01-30T07:33:31;16.48;;;8.00;;
61471;SDS011;47337;54.068;12.114;2024-01-30T07:35:56;11.55;;;7.18;;
61471;SDS011;47337;54.068;12.114;2024-01-30T07:38:21;15.15;;;8.27;;
61471;SDS011;47337;54.068;12.114;2024-01-30T07:40:47;12.77;;;6.93;;
61471;SDS011;47337;54.068;12.114;2024-01-30T07:43:12;14.40;;;8.25;;
61471;SDS011;47337;54.068;12.114;2024-01-30T07:45:40;14.50;;;8.13;;
61471;SDS011;47337;54.068;12.114;2024-01-30T07:48:07;13.45;;;7.97;;
61471;SDS011;47337;54.068;12.114;2024-01-30T07:50:35;12.02;;;7.50;;
61471;SDS011;47337;54.068;12.114;2024-01-30T07:53:00;12.38;;;8.13;;
61471;SDS011;47337;54.068;12.114;2024-01-30T07:55:26;13.95;;;8.27;;
61471;SDS011;47337;54.068;12.114;2024-01-30T07:57:56;13.48;;;7.60;;
61471;SDS011;47337;54.068;12.114;2024-01-30T08:00:24;11.60;;;6.90;;
61471;SDS011;47337;54.068;12.114;2024-01-30T08:02:52;13.18;;;7.72;;
61471;SDS011;47337;54.068;12.114;2024-01-30T08:05:22;14.80;;;8.30;;
61471;SDS011;47337;54.068;12.114;2024-01-30T08:07:50;12.88;;;7.60;;
61471;SDS011;47337;54.068;12.114;2024-01-30T08:10:16;13.88;;;8.13;;
61471;SDS011;47337;54.068;12.114;2024-01-30T08:12:43;12.88;;;8.07;;
61471;SDS011;47337;54.068;12.114;2024-01-30T08:15:08;11.38;;;7.60;;
61471;SDS011;47337;54.068;12.114;2024-01-30T08:17:34;12.63;;;7.35;;
61471;SDS011;47337;54.068;12.114;2024-01-30T08:20:01;13.75;;;8.02;;
61471;SDS011;47337;54.068;12.114;2024-01-30T08:22:29;12.38;;;7.65;;
61471;SDS011;47337;54.068;12.114;2024-01-30T08:24:54;11.98;;;8.02;;
61471;SDS011;47337;54.068;12.114;2024-01-30T08:27:20;12.88;;;7.78;;
61471;SDS011;47337;54.068;12.114;2024-01-30T08:29:45;15.43;;;8.48;;
61471;SDS011;47337;54.068;12.114;2024-01-30T08:32:11;14.40;;;7.90;;
61471;SDS011;47337;54.068;12.114;2024-01-30T08:34:36;12.93;;;8.23;;
61471;SDS011;47337;54.068;12.114;2024-01-30T08:37:02;11.98;;;7.65;;
61471;SDS011;47337;54.068;12.114;2024-01-30T08:39:29;17.92;;;9.00;;
61471;SDS011;47337;54.068;12.114;2024-01-30T08:41:55;12.88;;;7.22;;
61471;SDS011;47337;54.068;12.114;2024-01-30T08:44:21;12.82;;;7.93;;
61471;SDS011;47337;54.068;12.114;2024-01-30T08:46:46;12.45;;;7.45;;
61471;SDS011;47337;54.068;12.114;2024-01-30T08:49:11;14.43;;;8.00;;
61471;SDS011;47337;54.068;12.114;2024-01-30T08:51:38;14.52;;;7.55;;
61471;SDS011;47337;54.068;12.114;2024-01-30T08:54:03;13.15;;;8.25;;
61471;SDS011;47337;54.068;12.114;2024-01-30T08:56:29;16.83;;;8.48;;
61471;SDS011;47337;54.068;12.114;2024-01-30T08:58:54;12.35;;;7.55;;
61471;SDS011;47337;54.068;12.114;2024-01-30T09:01:19;13.50;;;8.15;;
61471;SDS011;47337;54.068;12.114;2024-01-30T09:03:44;12.75;;;8.30;;
61471;SDS011;47337;54.068;12.114;2024-01-30T09:06:11;13.68;;;7.75;;
61471;SDS011;47337;54.068;12.114;2024-01-30T09:08:37;12.88;;;7.10;;
61471;SDS011;47337;54.068;12.114;2024-01-30T09:11:08;19.42;;;7.57;;
61471;SDS011;47337;54.068;12.114;2024-01-30T09:13:33;13.95;;;7.68;;
61471;SDS011;47337;54.068;12.114;2024-01-30T09:15:58;12.35;;;7.88;;
61471;SDS011;47337;54.068;12.114;2024-01-30T09:18:24;13.70;;;7.30;;
61471;SDS011;47337;54.068;12.114;2024-01-30T09:20:49;13.00;;;7.00;;
61471;SDS011;47337;54.068;12.114;2024-01-30T09:23:14;14.23;;;7.95;;
61471;SDS011;47337;54.068;12.114;2024-01-30T09:25:39;13.50;;;7.35;;
61471;SDS011;47337;54.068;12.114;2024-01-30T09:28:05;13.65;;;7.30;;
61471;SDS011;47337;54.068;12.114;2024-01-30T09:30:30;13.30;;;8.38;;
61471;SDS011;47337;54.068;12.114;2024-01-30T09:32:55;12.85;;;7.82;;
61471;SDS011;47337;54.068;12.114;2024-01-30T09:35:21;13.40;;;7.72;;
61471;SDS011;47337;54.068;12.114;2024-01-30T09:37:46;11.82;;;7.43;;
61471;SDS011;47337;54.068;12.114;2024-01-30T09:40:11;14.00;;;7.65;;
61471;SDS011;47337;54.068;12.114;2024-01-30T09:42:37;11.48;;;7.78;;
61471;SDS011;47337;54.068;12.114;2024-01-30T09:45:02;14.75;;;7.55;;
61471;SDS011;47337;54.068;12.114;2024-01-30T09:47:31;12.68;;;7.93;;
61471;SDS011;47337;54.068;12.114;2024-01-30T09:49:56;14.95;;;8.35;;
61471;SDS011;47337;54.068;12.114;2024-01-30T09:52:21;14.07;;;8.35;;
61471;SDS011;47337;54.068;12.114;2024-01-30T09:54:47;13.45;;;8.18;;
61471;SDS011;47337;54.068;12.114;2024-01-30T09:57:13;12.85;;;8.35;;
61471;SDS011;47337;54.068;12.114;2024-01-30T09:59:41;13.45;;;8.07;;
61471;SDS011;47337;54.068;12.114;2024-01-30T10:02:07;17.17;;;7.80;;
61471;SDS011;47337;54.068;12.114;2024-01-30T10:04:32;11.30;;;8.02;;
61471;SDS011;47337;54.068;12.114;2024-01-30T10:06:59;15.48;;;8.45;;
61471;SDS011;47337;54.068;12.114;2024-01-30T10:09:27;13.07;;;7.78;;
61471;SDS011;47337;54.068;12.114;2024-01-30T10:11:52;12.02;;;7.75;;
61471;SDS011;47337;54.068;12.114;2024-01-30T10:14:17;12.93;;;8.00;;
61471;SDS011;47337;54.068;12.114;2024-01-30T10:16:45;14.73;;;8.38;;
61471;SDS011;47337;54.068;12.114;2024-01-30T10:19:11;12.48;;;7.75;;
61471;SDS011;47337;54.068;12.114;2024-01-30T10:21:36;13.18;;;8.75;;
61471;SDS011;47337;54.068;12.114;2024-01-30T10:24:01;12.35;;;7.78;;
61471;SDS011;47337;54.068;12.114;2024-01-30T10:26:26;13.18;;;7.75;;
61471;SDS011;47337;54.068;12.114;2024-01-30T10:28:54;16.38;;;9.10;;
61471;SDS011;47337;54.068;12.114;2024-01-30T10:31:21;13.48;;;8.50;;
61471;SDS011;47337;54.068;12.114;2024-01-30T10:33:47;15.40;;;9.50;;
61471;SDS011;47337;54.068;12.114;2024-01-30T10:36:13;13.88;;;8.43;;
61471;SDS011;47337;54.068;12.114;2024-01-30T10:38:40;15.60;;;8.32;;
61471;SDS011;47337;54.068;12.114;2024-01-30T10:41:07;14.82;;;8.45;;
61471;SDS011;47337;54.068;12.114;2024-01-30T10:43:36;13.30;;;8.07;;
61471;SDS011;47337;54.068;12.114;2024-01-30T10:46:17;17.90;;;8.40;;
61471;SDS011;47337;54.068;12.114;2024-01-30T10:48:43;14.90;;;7.97;;
61471;SDS011;47337;54.068;12.114;2024-01-30T10:51:11;14.65;;;8.40;;
61471;SDS011;47337;54.068;12.114;2024-01-30T10:53:38;17.65;;;8.75;;
61471;SDS011;47337;54.068;12.114;2024-01-30T10:56:03;15.77;;;8.80;;
61471;SDS011;47337;54.068;12.114;2024-01-30T10:58:29;14.85;;;7.90;;
61471;SDS011;47337;54.068;12.114;2024-01-30T11:00:54;14.23;;;7.95;;
61471;SDS011;47337;54.068;12.114;2024-01-30T11:03:20;16.23;;;8.63;;
61471;SDS011;47337;54.068;12.114;2024-01-30T11:05:49;15.40;;;9.13;;
61471;SDS011;47337;54.068;12.114;2024-01-30T11:08:26;12.82;;;8.35;;
61471;SDS011;47337;54.068;12.114;2024-01-30T11:10:56;13.60;;;7.68;;
61471;SDS011;47337;54.068;12.114;2024-01-30T11:13:31;13.40;;;8.50;;
61471;SDS011;47337;54.068;12.114;2024-01-30T11:16:06;16.35;;;9.23;;
61471;SDS011;47337;54.068;12.114;2024-01-30T11:18:32;10.77;;;8.02;;
61471;SDS011;47337;54.068;12.114;2024-01-30T11:20:58;15.57;;;8.95;;
61471;SDS011;47337;54.068;12.114;2024-01-30T11:23:23;16.73;;;8.57;;
61471;SDS011;47337;54.068;12.114;2024-01-30T11:25:52;12.40;;;8.85;;
61471;SDS011;47337;54.068;12.114;2024-01-30T11:28:17;11.30;;;7.78;;
61471;SDS011;47337;54.068;12.114;2024-01-30T11:30:43;13.55;;;8.50;;
61471;SDS011;47337;54.068;12.114;2024-01-30T11:33:12;13.32;;;8.32;;
61471;SDS011;47337;54.068;12.114;2024-01-30T11:35:41;13.68;;;7.97;;
61471;SDS011;47337;54.068;12.114;2024-01-30T11:38:07;16.92;;;8.75;;
61471;SDS011;47337;54.068;12.114;2024-01-30T11:40:33;13.57;;;8.23;;
61471;SDS011;47337;54.068;12.114;2024-01-30T11:43:00;15.68;;;9.18;;
61471;SDS011;47337;54.068;12.114;2024-01-30T11:45:28;13.13;;;8.00;;
61471;SDS011;47337;54.068;12.114;2024-01-30T11:47:54;15.30;;;8.27;;
61471;SDS011;47337;54.068;12.114;2024-01-30T11:50:19;13.85;;;8.43;;
61471;SDS011;47337;54.068;12.114;2024-01-30T11:52:47;12.50;;;8.07;;
61471;SDS011;47337;54.068;12.114;2024-01-30T11:55:13;14.43;;;8.77;;
61471;SDS011;47337;54.068;12.114;2024-01-30T11:57:38;14.13;;;8.20;;
61471;SDS011;47337;54.068;12.114;2024-01-30T12:00:04;12.98;;;7.95;;
61471;SDS011;47337;54.068;12.114;2024-01-30T12:02:35;13.90;;;8.38;;
61471;SDS011;47337;54.068;12.114;2024-01-30T12:05:03;13.23;;;8.55;;
61471;SDS011;47337;54.068;12.114;2024-01-30T12:07:28;13.63;;;8.55;;
61471;SDS011;47337;54.068;12.114;2024-01-30T12:09:54;15.52;;;7.70;;
61471;SDS011;47337;54.068;12.114;2024-01-30T12:12:21;15.13;;;8.18;;
61471;SDS011;47337;54.068;12.114;2024-01-30T12:14:48;15.85;;;7.78;;
61471;SDS011;47337;54.068;12.114;2024-01-30T12:17:23;17.35;;;8.70;;
61471;SDS011;47337;54.068;12.114;2024-01-30T12:19:48;11.95;;;7.90;;
61471;SDS011;47337;54.068;12.114;2024-01-30T12:22:13;13.30;;;8.65;;
61471;SDS011;47337;54.068;12.114;2024-01-30T12:24:38;17.00;;;8.40;;
61471;SDS011;47337;54.068;12.114;2024-01-30T12:27:04;11.77;;;8.52;;
61471;SDS011;47337;54.068;12.114;2024-01-30T12:29:31;12.25;;;7.97;;
61471;SDS011;47337;54.068;12.114;2024-01-30T12:31:57;12.05;;;7.85;;
61471;SDS011;47337;54.068;12.114;2024-01-30T12:34:22;12.93;;;7.95;;
61471;SDS011;47337;54.068;12.114;2024-01-30T12:36:49;12.50;;;7.88;;
61471;SDS011;47337;54.068;12.114;2024-01-30T12:39:15;14.32;;;8.38;;
61471;SDS011;47337;54.068;12.114;2024-01-30T12:41:43;11.48;;;7.93;;
61471;SDS011;47337;54.068;12.114;2024-01-30T12:44:08;13.70;;;8.20;;
61471;SDS011;47337;54.068;12.114;2024-01-30T12:46:34;15.38;;;8.13;;
61471;SDS011;47337;54.068;12.114;2024-01-30T12:48:59;13.02;;;8.20;;
61471;SDS011;47337;54.068;12.114;2024-01-30T12:51:24;12.73;;;8.13;;
61471;SDS011;47337;54.068;12.114;2024-01-30T12:53:50;11.93;;;8.10;;
61471;SDS011;47337;54.068;12.114;2024-01-30T12:56:15;13.48;;;7.60;;
61471;SDS011;47337;54.068;12.114;2024-01-30T12:58:40;11.45;;;7.72;;
61471;SDS011;47337;54.068;12.114;2024-01-30T13:01:08;17.42;;;8.38;;
61471;SDS011;47337;54.068;12.114;2024-01-30T13:03:35;13.57;;;8.70;;
61471;SDS011;47337;54.068;12.114;2024-01-30T13:06:00;14.02;;;8.65;;
61471;SDS011;47337;54.068;12.114;2024-01-30T13:08:29;16.33;;;8.05;;
61471;SDS011;47337;54.068;12.114;2024-01-30T13:10:54;13.57;;;8.75;;
61471;SDS011;47337;54.068;12.114;2024-01-30T13:13:19;12.52;;;8.02;;
61471;SDS011;47337;54.068;12.114;2024-01-30T13:15:44;12.73;;;8.10;;
61471;SDS011;47337;54.068;12.114;2024-01-30T13:18:10;12.98;;;7.88;;
61471;SDS011;47337;54.068;12.114;2024-01-30T13:20:35;15.50;;;8.85;;
61471;SDS011;47337;54.068;12.114;2024-01-30T13:23:00;14.93;;;8.57;;
61471;SDS011;47337;54.068;12.114;2024-01-30T13:25:25;13.45;;;9.20;;
61471;SDS011;47337;54.068;12.114;2024-01-30T13:27:51;14.00;;;8.00;;
61471;SDS011;47337;54.068;12.114;2024-01-30T13:30:16;12.93;;;8.27;;
61471;SDS011;47337;54.068;12.114;2024-01-30T13:32:41;11.80;;;7.78;;
61471;SDS011;47337;54.068;12.114;2024-01-30T13:35:09;11.90;;;7.88;;
61471;SDS011;47337;54.068;12.114;2024-01-30T13:37:34;12.98;;;8.55;;
61471;SDS011;47337;54.068;12.114;2024-01-30T13:40:02;13.30;;;8.77;;
61471;SDS011;47337;54.068;12.114;2024-01-30T13:42:28;11.18;;;8.32;;
61471;SDS011;47337;54.068;12.114;2024-01-30T13:44:53;15.27;;;8.82;;
61471;SDS011;47337;54.068;12.114;2024-01-30T13:47:18;11.82;;;8.07;;
61471;SDS011;47337;54.068;12.114;2024-01-30T13:49:46;17.55;;;8.80;;
61471;SDS011;47337;54.068;12.114;2024-01-30T13:52:11;11.55;;;8.18;;
61471;SDS011;47337;54.068;12.114;2024-01-30T13:54:36;12.82;;;8.32;;
61471;SDS011;47337;54.068;12.114;2024-01-30T13:57:02;11.90;;;8.02;;
61471;SDS011;47337;54.068;12.114;2024-01-30T13:59:27;14.32;;;8.65;;
61471;SDS011;47337;54.068;12.114;2024-01-30T14:01:52;13.35;;;8.23;;
61471;SDS011;47337;54.068;12.114;2024-01-30T14:04:17;15.32;;;8.32;;
61471;SDS011;47337;54.068;12.114;2024-01-30T14:06:43;12.10;;;8.13;;
61471;SDS011;47337;54.068;12.114;2024-01-30T14:09:08;13.15;;;8.38;;
61471;SDS011;47337;54.068;12.114;2024-01-30T14:11:33;13.77;;;8.65;;
61471;SDS011;47337;54.068;12.114;2024-01-30T14:13:59;12.77;;;8.02;;
61471;SDS011;47337;54.068;12.114;2024-01-30T14:16:26;12.48;;;7.90;;